Time;durP1;ratioP1;P1;durP2;ratioP2;P2;SDS_P1;SDS_P2;PMS_P1;PMS_P2;Temp;Humidity;BMP_temperature;BMP_pressure;BME280_temperature;BME280_humidity;BME280_pressure;Samples;Min_cycle;Max_cycle;Signal;HPM_P1;HPM_P2
2021/06/16 00:00:06;;;;;;;7.35;4.62;;;;;;;12.17;65.49;97398.73;1822514;76;27355;-79
2021/06/16 00:02:35;;;;;;;6.12;4.62;;;;;;;12.15;65.49;97402.70;1845771;77;25641;-79
2021/06/16 00:05:06;;;;;;;8.18;4.55;;;;;;;12.11;65.57;97405.53;1822180;76;25732;-77
2021/06/16 00:07:33;;;;;;;8.15;4.95;;;;;;;12.07;65.60;97404.34;1822454;77;26631;-78
2021/06/16 00:10:01;;;;;;;7.65;5.00;;;;;;;12.03;65.63;97405.81;1815360;76;25629;-78
2021/06/16 00:12:29;;;;;;;7.78;4.53;;;;;;;12.00;65.70;97407.59;1845919;77;27417;-80
2021/06/16 00:14:56;;;;;;;7.37;4.92;;;;;;;11.96;65.69;97407.72;1845335;77;25779;-78
2021/06/16 00:17:23;;;;;;;7.05;4.87;;;;;;;11.90;65.83;97414.34;1837772;76;25796;-77
2021/06/16 00:19:50;;;;;;;7.90;5.17;;;;;;;11.87;65.87;97415.29;1829514;77;26058;-79
2021/06/16 00:22:17;;;;;;;5.78;4.47;;;;;;;11.80;65.98;97408.59;1832840;77;25723;-79
2021/06/16 00:24:44;;;;;;;9.65;5.42;;;;;;;11.76;66.07;97411.42;1834804;77;26633;-80
2021/06/16 00:27:11;;;;;;;7.62;5.03;;;;;;;11.75;66.16;97413.81;1825724;76;26013;-78
2021/06/16 00:29:37;;;;;;;8.58;4.95;;;;;;;11.72;66.19;97416.08;1779467;79;25751;-79
2021/06/16 00:32:05;;;;;;;7.33;5.12;;;;;;;11.69;66.21;97406.56;1834198;77;25821;-78
2021/06/16 00:34:32;;;;;;;9.93;5.65;;;;;;;11.66;66.32;97407.51;1843952;77;25449;-80
2021/06/16 00:36:59;;;;;;;10.53;5.85;;;;;;;11.59;66.47;97414.33;1843606;77;27458;-81
2021/06/16 00:39:26;;;;;;;9.43;5.28;;;;;;;11.48;66.57;97416.34;1844560;76;25861;-80
2021/06/16 00:41:54;;;;;;;11.53;6.00;;;;;;;11.36;66.80;97409.44;1865409;76;25682;-81
2021/06/16 00:44:20;;;;;;;8.53;5.28;;;;;;;11.28;66.90;97404.81;1849252;76;26404;-80
2021/06/16 00:46:47;;;;;;;11.85;5.80;;;;;;;11.26;67.06;97412.30;1844229;77;26511;-78
2021/06/16 00:49:14;;;;;;;10.93;6.20;;;;;;;11.30;67.19;97414.89;1845231;76;27365;-77
2021/06/16 00:51:41;;;;;;;12.10;5.87;;;;;;;11.32;67.19;97406.88;1823542;77;26352;-81
2021/06/16 00:54:11;;;;;;;10.75;5.03;;;;;;;11.33;67.20;97402.30;1844253;77;25736;-80
2021/06/16 00:56:39;;;;;;;8.50;5.28;;;;;;;11.33;67.24;97403.66;1840680;77;25701;-80
2021/06/16 00:59:07;;;;;;;7.65;5.42;;;;;;;11.30;67.25;97407.61;1833188;77;25258;-78
2021/06/16 01:01:38;;;;;;;10.88;5.62;;;;;;;11.29;67.22;97399.20;1846787;76;27440;-80
2021/06/16 01:04:15;;;;;;;8.05;5.08;;;;;;;11.29;67.19;97401.07;1867102;76;25696;-79
2021/06/16 01:06:46;;;;;;;6.37;4.97;;;;;;;11.25;67.21;97409.29;1857453;76;25241;-77
2021/06/16 01:09:19;;;;;;;6.50;5.08;;;;;;;11.16;67.23;97410.06;1854453;76;25828;-78
2021/06/16 01:12:36;;;;;;;7.00;5.65;;;;;;;11.12;67.29;97404.78;1845029;77;26425;-79
2021/06/16 01:15:10;;;;;;;6.12;4.53;;;;;;;11.07;67.37;97397.34;1844153;76;28133;-78
2021/06/16 01:17:55;;;;;;;7.00;4.83;;;;;;;11.04;67.41;97396.92;1843844;76;25799;-79
2021/06/16 01:20:36;;;;;;;5.30;4.72;;;;;;;11.02;67.52;97397.14;1848446;76;26119;-80
2021/06/16 01:23:25;;;;;;;7.05;4.80;;;;;;;11.02;67.56;97403.89;1867570;76;26294;-78
2021/06/16 01:26:06;;;;;;;5.83;4.42;;;;;;;11.01;67.55;97398.70;1844209;76;25890;-78
2021/06/16 01:28:40;;;;;;;8.35;4.87;;;;;;;10.98;67.60;97401.33;1844629;76;28164;-77
2021/06/16 01:31:10;;;;;;;6.62;4.85;;;;;;;10.95;67.71;97397.70;1861174;76;25653;-78
2021/06/16 01:33:38;;;;;;;6.55;4.55;;;;;;;10.96;67.72;97398.01;1853233;76;25258;-80
2021/06/16 01:36:07;;;;;;;8.05;5.08;;;;;;;10.93;67.67;97394.37;1815790;76;26374;-78
2021/06/16 01:38:35;;;;;;;6.25;4.60;;;;;;;10.89;67.77;97397.70;1844364;76;25728;-77
2021/06/16 01:41:04;;;;;;;6.90;4.87;;;;;;;10.86;67.87;97396.28;1812894;77;27359;-78
2021/06/16 01:43:31;;;;;;;6.95;4.90;;;;;;;10.81;68.05;97393.38;1826667;76;25831;-77
2021/06/16 01:46:01;;;;;;;6.12;4.75;;;;;;;10.73;68.08;97394.45;1844203;76;25763;-77
2021/06/16 01:48:29;;;;;;;7.53;4.97;;;;;;;10.72;68.17;97393.31;1836701;77;25703;-78
2021/06/16 01:50:58;;;;;;;6.00;4.97;;;;;;;10.72;68.25;97394.66;1844746;77;25717;-78
2021/06/16 01:53:25;;;;;;;10.18;5.20;;;;;;;10.72;68.22;97391.97;1830160;76;27320;-77
2021/06/16 01:55:53;;;;;;;10.25;4.80;;;;;;;10.70;68.25;97394.05;1836508;76;26034;-77
2021/06/16 01:58:20;;;;;;;6.42;5.08;;;;;;;10.69;68.23;97390.52;1828855;77;25318;-78
2021/06/16 02:00:51;;;;;;;4.90;4.35;;;;;;;10.67;68.22;97393.11;1810432;77;25663;-77
2021/06/16 02:03:17;;;;;;;7.75;5.25;;;;;;;10.65;68.24;97404.12;1857582;76;25664;-81
2021/06/16 02:05:44;;;;;;;6.22;4.95;;;;;;;10.65;68.24;97403.28;1833188;76;28184;-79
2021/06/16 02:08:14;;;;;;;7.30;5.33;;;;;;;10.62;68.21;97403.21;1812539;77;25738;-80
2021/06/16 02:10:49;;;;;;;5.53;4.20;;;;;;;10.60;68.33;97401.76;1860958;76;25864;-78
2021/06/16 02:13:23;;;;;;;8.08;4.87;;;;;;;10.57;68.38;97401.66;1847948;76;26429;-77
2021/06/16 02:16:01;;;;;;;7.72;4.28;;;;;;;10.53;68.40;97395.01;1843946;76;25747;-77
2021/06/16 02:18:50;;;;;;;6.80;4.70;;;;;;;10.53;68.46;97391.48;1806110;77;26777;-78
2021/06/16 02:21:17;;;;;;;6.42;4.47;;;;;;;10.48;68.60;97392.13;1831951;76;25673;-80
2021/06/16 02:23:44;;;;;;;6.30;4.78;;;;;;;10.44;68.67;97394.41;1844488;77;25733;-77
2021/06/16 02:26:15;;;;;;;7.15;4.83;;;;;;;10.44;68.70;97394.41;1870287;76;25800;-77
2021/06/16 02:28:43;;;;;;;5.47;4.15;;;;;;;10.42;68.73;97400.53;1842708;76;25766;-79
2021/06/16 02:31:11;;;;;;;8.10;4.42;;;;;;;10.38;68.73;97402.02;1844943;77;27355;-79
2021/06/16 02:33:38;;;;;;;9.75;4.72;;;;;;;10.35;68.81;97398.91;1873637;76;26727;-81
2021/06/16 02:36:10;;;;;;;7.50;4.97;;;;;;;10.35;68.86;97398.38;1844629;76;25799;-80
2021/06/16 02:38:41;;;;;;;8.13;4.92;;;;;;;10.33;68.88;97405.85;1844821;76;25764;-81
2021/06/16 02:41:12;;;;;;;8.05;4.72;;;;;;;10.32;68.94;97409.59;1867518;76;26404;-80
2021/06/16 02:43:40;;;;;;;9.03;5.03;;;;;;;10.31;69.04;97409.27;1849558;76;27380;-81
2021/06/16 02:46:11;;;;;;;5.55;4.87;;;;;;;10.30;69.09;97408.96;1845762;77;25787;-81
2021/06/16 02:48:45;;;;;;;8.35;5.40;;;;;;;10.30;69.16;97418.92;1818142;76;25753;-80
2021/06/16 02:51:13;;;;;;;6.33;4.97;;;;;;;10.28;69.21;97411.03;1849862;76;25708;-82
2021/06/16 02:53:42;;;;;;;6.05;4.97;;;;;;;10.31;69.23;97416.02;1853085;76;26272;-80
2021/06/16 02:56:10;;;;;;;6.62;4.83;;;;;;;10.30;69.18;97415.70;1845731;77;27409;-77
2021/06/16 02:58:41;;;;;;;9.28;5.05;;;;;;;10.29;69.16;97426.19;1813871;77;25863;-80
2021/06/16 03:01:13;;;;;;;7.75;4.90;;;;;;;10.29;69.22;97426.70;1826898;76;25696;-78
2021/06/16 03:03:44;;;;;;;9.90;4.75;;;;;;;10.28;69.30;97423.69;1854783;76;25689;-80
2021/06/16 03:06:13;;;;;;;9.88;5.47;;;;;;;10.28;69.33;97419.13;1845672;77;25641;-78
2021/06/16 03:08:43;;;;;;;8.05;5.30;;;;;;;10.27;69.36;97420.16;1845608;77;28223;-79
2021/06/16 03:11:12;;;;;;;7.03;4.78;;;;;;;10.26;69.42;97425.80;1845743;76;26162;-79
2021/06/16 03:13:40;;;;;;;8.28;5.17;;;;;;;10.24;69.44;97424.66;1845872;76;25732;-78
2021/06/16 03:16:07;;;;;;;10.43;5.12;;;;;;;10.23;69.54;97433.78;1845769;76;25694;-80
2021/06/16 03:18:37;;;;;;;8.75;5.10;;;;;;;10.19;69.55;97427.65;1845642;76;25661;-80
2021/06/16 03:21:05;;;;;;;7.65;5.30;;;;;;;10.20;69.67;97436.89;1845310;76;27414;-77
2021/06/16 03:23:32;;;;;;;8.60;6.95;;;;;;;10.20;69.75;97439.58;1865879;75;25700;-78
2021/06/16 03:26:01;;;;;;;8.43;5.83;;;;;;;10.21;69.79;97435.84;1853105;76;25850;-78
2021/06/16 03:28:29;;;;;;;8.15;5.20;;;;;;;10.23;69.76;97443.22;1846036;76;25791;-78
2021/06/16 03:31:01;;;;;;;6.97;4.97;;;;;;;10.23;69.79;97449.97;1838349;77;25636;-81
2021/06/16 03:33:29;;;;;;;8.73;5.67;;;;;;;10.23;69.87;97458.06;1846207;76;27353;-80
2021/06/16 03:35:57;;;;;;;8.40;5.47;;;;;;;10.24;69.98;97451.62;1838381;77;25711;-79
2021/06/16 03:38:26;;;;;;;8.28;5.72;;;;;;;10.25;70.02;97453.29;1874627;76;25653;-78
2021/06/16 03:40:55;;;;;;;8.63;5.67;;;;;;;10.25;70.10;97445.20;1860058;76;25663;-79
2021/06/16 03:43:23;;;;;;;8.03;5.87;;;;;;;10.27;70.19;97446.31;1859303;75;26293;-80
2021/06/16 03:45:51;;;;;;;10.88;6.85;;;;;;;10.30;70.34;97444.55;1853481;76;27419;-78
2021/06/16 03:48:21;;;;;;;12.28;7.15;;;;;;;10.33;70.40;97442.80;1854738;77;25787;-78
2021/06/16 03:50:50;;;;;;;10.48;6.35;;;;;;;10.39;70.48;97447.34;1881667;75;25804;-78
2021/06/16 03:53:18;;;;;;;9.08;6.08;;;;;;;10.42;70.48;97452.33;1849331;76;25728;-81
2021/06/16 03:55:48;;;;;;;9.13;5.90;;;;;;;10.43;70.50;97448.08;1854481;77;25768;-79
2021/06/16 03:58:15;;;;;;;9.18;6.25;;;;;;;10.45;70.52;97446.52;1854666;77;27257;-78
2021/06/16 04:00:44;;;;;;;7.62;5.72;;;;;;;10.49;70.65;97446.42;1831009;77;25744;-77
2021/06/16 04:03:14;;;;;;;16.27;6.85;;;;;;;10.51;70.71;97441.62;1854715;77;25697;-78
2021/06/16 04:05:42;;;;;;;12.70;6.25;;;;;;;10.55;70.73;97444.22;1854485;76;25717;-78
2021/06/16 04:08:12;;;;;;;13.08;6.53;;;;;;;10.58;70.86;97445.67;1854853;77;25677;-78
2021/06/16 04:10:43;;;;;;;15.80;6.75;;;;;;;10.61;70.93;97436.64;1831787;77;28004;-78
2021/06/16 04:13:11;;;;;;;13.48;7.67;;;;;;;10.66;70.93;97446.79;1831570;77;25780;-78
2021/06/16 04:15:37;;;;;;;11.00;6.58;;;;;;;10.69;70.88;97445.02;1849385;77;26534;-79
2021/06/16 04:18:06;;;;;;;16.42;7.28;;;;;;;10.75;70.95;97446.86;1854894;76;25722;-78
2021/06/16 04:20:33;;;;;;;13.28;7.22;;;;;;;10.79;70.91;97448.11;1872540;75;25531;-78
2021/06/16 04:23:00;;;;;;;15.90;7.37;;;;;;;10.85;70.96;97448.63;1859410;75;27343;-80
2021/06/16 04:25:28;;;;;;;10.53;6.83;;;;;;;10.90;71.02;97454.20;1854421;77;25733;-81
2021/06/16 04:27:55;;;;;;;14.30;7.12;;;;;;;10.96;71.04;97455.25;1877891;75;25714;-81
2021/06/16 04:30:24;;;;;;;11.05;7.62;;;;;;;10.99;71.13;97451.58;1858069;75;25695;-79
2021/06/16 04:32:51;;;;;;;13.95;7.83;;;;;;;11.05;71.11;97448.56;1854339;76;25716;-78
2021/06/16 04:35:19;;;;;;;12.03;7.40;;;;;;;11.11;71.18;97445.82;1844239;77;28182;-81
2021/06/16 04:37:47;;;;;;;14.10;7.37;;;;;;;11.16;71.15;97446.54;1836748;77;25720;-80
2021/06/16 04:40:14;;;;;;;9.25;7.28;;;;;;;11.23;71.26;97451.38;1852519;77;26311;-80
2021/06/16 04:42:42;;;;;;;9.50;7.35;;;;;;;11.27;71.31;97455.84;1834169;76;26606;-81
2021/06/16 04:45:10;;;;;;;13.10;7.28;;;;;;;11.32;71.25;97454.69;1821829;77;26374;-80
2021/06/16 04:47:37;;;;;;;13.50;7.08;;;;;;;11.40;71.30;97452.56;1834280;77;27430;-80
2021/06/16 04:50:13;;;;;;;13.08;7.08;;;;;;;11.47;71.42;97442.54;1845901;77;25625;-81
2021/06/16 04:52:40;;;;;;;9.78;6.83;;;;;;;11.55;71.42;97441.48;1846026;76;25726;-80
2021/06/16 04:55:11;;;;;;;9.18;6.85;;;;;;;11.63;71.49;97452.02;1845920;77;26465;-80
2021/06/16 04:57:38;;;;;;;13.78;7.08;;;;;;;11.71;71.33;97451.76;1846067;77;25741;-79
2021/06/16 05:00:11;;;;;;;14.70;6.70;;;;;;;11.79;71.47;97446.66;1846058;77;28183;-80
2021/06/16 05:02:38;;;;;;;8.38;6.47;;;;;;;11.88;71.35;97447.53;1845979;77;25709;-78
2021/06/16 05:05:07;;;;;;;9.98;6.10;;;;;;;11.96;71.21;97446.95;1845896;77;26516;-79
2021/06/16 05:07:34;;;;;;;11.48;7.20;;;;;;;12.04;71.06;97443.48;1845468;77;25832;-78
2021/06/16 05:10:00;;;;;;;16.50;6.33;;;;;;;12.14;71.15;97449.74;1845583;77;25749;-80
2021/06/16 05:12:27;;;;;;;10.50;7.05;;;;;;;12.22;71.36;97453.52;1845850;76;26944;-80
2021/06/16 05:14:54;;;;;;;11.05;6.50;;;;;;;12.32;71.33;97456.55;1845816;77;26312;-80
2021/06/16 05:17:21;;;;;;;10.48;6.75;;;;;;;12.40;71.46;97453.59;1845554;77;25802;-79
2021/06/16 05:19:55;;;;;;;8.23;6.22;;;;;;;12.49;71.58;97439.23;1874696;76;26396;-79
2021/06/16 05:22:17;;;;;;;11.70;6.60;;;;;;;12.58;71.58;97442.79;1845611;76;26301;-78
2021/06/16 05:24:44;;;;;;;10.58;5.87;;;;;;;12.69;71.54;97444.45;1846058;77;28203;-80
2021/06/16 05:27:15;;;;;;;8.55;6.53;;;;;;;12.77;71.46;97443.66;1853749;76;25675;-78
2021/06/16 05:29:43;;;;;;;8.35;5.83;;;;;;;12.86;71.42;97440.12;1845992;77;25768;-80
2021/06/16 05:32:11;;;;;;;9.95;6.90;;;;;;;12.95;71.43;97446.36;1834385;77;25680;-79
2021/06/16 05:34:38;;;;;;;11.68;6.60;;;;;;;13.06;71.29;97452.91;1826641;77;25748;-78
2021/06/16 05:37:07;;;;;;;10.68;6.12;;;;;;;13.14;71.21;97449.95;1845885;76;27481;-80
2021/06/16 05:39:36;;;;;;;8.33;6.28;;;;;;;13.23;71.20;97444.52;1846144;77;25746;-79
2021/06/16 05:42:03;;;;;;;8.38;5.70;;;;;;;13.33;71.14;97446.16;1824151;77;25724;-79
2021/06/16 05:44:30;;;;;;;11.73;6.40;;;;;;;13.48;71.27;97445.77;1845984;77;25737;-80
2021/06/16 05:46:57;;;;;;;10.58;6.30;;;;;;;13.64;71.03;97437.53;1845664;77;25694;-77
2021/06/16 05:49:23;;;;;;;10.58;5.92;;;;;;;13.77;71.10;97441.39;1845894;77;28190;-79
2021/06/16 05:51:50;;;;;;;12.33;6.53;;;;;;;13.88;70.93;97432.48;1845832;77;25791;-81
2021/06/16 05:54:17;;;;;;;9.15;5.58;;;;;;;13.98;70.79;97435.45;1845771;77;25737;-80
2021/06/16 05:56:44;;;;;;;11.80;5.97;;;;;;;14.09;70.75;97438.43;1845811;77;25737;-79
2021/06/16 05:59:10;;;;;;;8.25;6.05;;;;;;;14.19;70.61;97442.22;1844853;77;25769;-78
2021/06/16 06:01:38;;;;;;;14.58;6.10;;;;;;;14.30;70.62;97443.30;1845781;77;28217;-80
2021/06/16 06:04:08;;;;;;;10.95;7.15;;;;;;;14.41;70.61;97434.38;1838829;76;25728;-80
2021/06/16 06:06:36;;;;;;;9.00;6.72;;;;;;;14.50;70.44;97434.31;1845347;76;25788;-78
2021/06/16 06:09:08;;;;;;;15.83;7.15;;;;;;;14.62;70.19;97441.93;1845566;76;26332;-80
2021/06/16 06:11:36;;;;;;;12.50;7.22;;;;;;;14.74;70.00;97434.61;1833604;76;25716;-78
2021/06/16 06:14:06;;;;;;;10.55;6.87;;;;;;;14.86;69.73;97439.20;1835715;77;28182;-78
2021/06/16 06:16:33;;;;;;;10.98;7.10;;;;;;;14.98;69.64;97440.02;1845759;77;25664;-80
2021/06/16 06:18:59;;;;;;;9.53;6.20;;;;;;;15.11;69.53;97431.61;1870817;76;25697;-79
2021/06/16 06:21:32;;;;;;;14.73;6.65;;;;;;;15.30;69.49;97434.48;1848331;75;25780;-79
2021/06/16 06:24:02;;;;;;;11.25;4.90;;;;;;;15.44;69.26;97439.95;1869606;76;25747;-77
2021/06/16 06:26:29;;;;;;;9.00;6.20;;;;;;;15.57;68.86;97438.05;1849926;75;27358;-80
2021/06/16 06:28:56;;;;;;;10.28;6.03;;;;;;;15.70;68.34;97440.45;1886446;76;25882;-79
2021/06/16 06:31:23;;;;;;;7.97;5.70;;;;;;;15.83;68.31;97440.16;1855621;75;25797;-81
2021/06/16 06:33:49;;;;;;;6.53;5.45;;;;;;;15.94;67.77;97440.63;1861781;76;25686;-79
2021/06/16 06:36:16;;;;;;;9.93;5.58;;;;;;;16.04;67.46;97440.84;1824783;77;25696;-78
2021/06/16 06:38:43;;;;;;;9.93;5.40;;;;;;;16.13;67.18;97450.25;1845496;77;27351;-81
2021/06/16 06:41:10;;;;;;;13.32;5.60;;;;;;;16.24;66.68;97445.80;1845768;77;25748;-80
2021/06/16 06:43:37;;;;;;;12.55;5.83;;;;;;;16.37;66.86;97452.30;1845599;76;25243;-77
2021/06/16 06:46:04;;;;;;;9.13;5.30;;;;;;;16.49;66.53;97446.77;1826263;77;25743;-80
2021/06/16 06:48:30;;;;;;;9.23;5.03;;;;;;;16.62;66.29;97446.47;1845709;77;25780;-80
2021/06/16 06:50:57;;;;;;;10.75;5.40;;;;;;;16.73;65.90;97448.27;1845753;77;27351;-82
2021/06/16 06:53:25;;;;;;;10.78;5.60;;;;;;;16.85;65.70;97444.09;1835955;77;25705;-79
2021/06/16 06:55:52;;;;;;;5.97;5.17;;;;;;;16.97;65.29;97442.08;1845386;77;25727;-82
2021/06/16 06:58:18;;;;;;;11.88;5.37;;;;;;;17.09;64.98;97443.33;1845947;77;25665;-81
2021/06/16 07:00:45;;;;;;;8.88;5.10;;;;;;;17.22;64.70;97439.70;1874780;76;25730;-81
2021/06/16 07:03:12;;;;;;;8.53;5.10;;;;;;;17.40;64.18;97434.45;1846025;76;27324;-81
2021/06/16 07:05:38;;;;;;;9.13;4.92;;;;;;;17.53;63.70;97431.34;1845929;76;26264;-78
2021/06/16 07:08:06;;;;;;;7.85;5.75;;;;;;;17.68;63.47;97428.00;1846142;76;25871;-82
2021/06/16 07:10:32;;;;;;;9.35;4.92;;;;;;;17.79;62.97;97433.03;1816864;77;25775;-84
2021/06/16 07:12:59;;;;;;;6.87;5.30;;;;;;;17.94;62.81;97425.84;1844338;77;25696;-79
2021/06/16 07:15:26;;;;;;;6.33;4.80;;;;;;;18.05;62.39;97421.83;1846240;77;27352;-80
2021/06/16 07:17:53;;;;;;;8.85;5.25;;;;;;;18.17;62.13;97419.77;1846134;76;25748;-80
2021/06/16 07:20:19;;;;;;;9.78;4.67;;;;;;;18.27;61.63;97411.11;1845746;76;25743;-79
2021/06/16 07:22:47;;;;;;;8.78;5.08;;;;;;;18.43;61.53;97415.34;1868336;76;25654;-78
2021/06/16 07:25:15;;;;;;;7.58;4.75;;;;;;;18.60;61.47;97411.94;1845072;77;25457;-79
2021/06/16 07:27:43;;;;;;;8.23;5.10;;;;;;;18.74;61.31;97410.41;1841085;76;28177;-79
2021/06/16 07:30:11;;;;;;;6.60;4.45;;;;;;;18.87;60.94;97407.20;1836622;77;25803;-77
2021/06/16 07:32:38;;;;;;;9.05;4.45;;;;;;;18.99;60.67;97400.98;1840655;76;25740;-82
2021/06/16 07:35:07;;;;;;;6.75;4.80;;;;;;;19.12;60.28;97405.70;1838003;77;26396;-82
2021/06/16 07:37:35;;;;;;;9.55;5.35;;;;;;;19.28;60.43;97399.23;1846162;77;25822;-78
2021/06/16 07:40:03;;;;;;;8.63;4.78;;;;;;;19.44;60.04;97399.00;1846038;77;28158;-80
2021/06/16 07:42:30;;;;;;;9.45;5.53;;;;;;;19.57;59.68;97399.08;1833130;76;25768;-81
2021/06/16 07:44:56;;;;;;;10.40;5.10;;;;;;;19.73;59.35;97396.67;1846202;77;25727;-79
2021/06/16 07:47:23;;;;;;;8.03;5.35;;;;;;;19.92;58.94;97399.75;1874424;76;25934;-82
2021/06/16 07:49:51;;;;;;;8.55;5.72;;;;;;;20.09;58.84;97400.30;1846103;76;25848;-79
2021/06/16 07:52:18;;;;;;;6.03;4.70;;;;;;;20.29;58.66;97405.52;1845410;77;27203;-83
2021/06/16 07:54:44;;;;;;;7.72;4.97;;;;;;;20.49;58.59;97409.68;1845279;77;25793;-82
2021/06/16 07:57:11;;;;;;;7.33;5.05;;;;;;;20.66;57.88;97409.37;1814349;77;25764;-82
2021/06/16 07:59:38;;;;;;;9.68;4.83;;;;;;;20.85;57.75;97403.06;1845762;77;25930;-86
2021/06/16 08:02:06;;;;;;;10.03;4.87;;;;;;;21.17;57.29;97408.73;1873000;76;25823;-79
2021/06/16 08:04:36;;;;;;;9.13;5.08;;;;;;;21.59;56.92;97406.97;1846369;76;27362;-87
2021/06/16 08:07:03;;;;;;;6.75;4.80;;;;;;;22.04;56.22;97401.80;1869448;76;26450;-87
2021/06/16 08:09:30;;;;;;;9.05;5.03;;;;;;;22.54;55.45;97406.09;1779474;78;25768;-83
2021/06/16 08:11:57;;;;;;;8.40;4.62;;;;;;;23.08;55.20;97406.42;1844048;76;25820;-87
2021/06/16 08:14:23;;;;;;;9.63;4.90;;;;;;;23.52;54.71;97398.53;1840297;77;25766;-82
2021/06/16 08:16:50;;;;;;;9.15;4.62;;;;;;;23.95;53.87;97407.03;1833425;77;27401;-79
2021/06/16 08:19:17;;;;;;;8.53;4.85;;;;;;;24.30;52.94;97411.23;1839107;76;25805;-79
2021/06/16 08:21:43;;;;;;;9.58;4.92;;;;;;;24.55;52.20;97416.08;1872191;75;25773;-79
2021/06/16 08:24:10;;;;;;;6.90;4.67;;;;;;;24.78;51.16;97415.95;1836695;77;25704;-81
2021/06/16 08:26:37;;;;;;;6.60;4.62;;;;;;;25.10;50.69;97415.72;1845488;76;25220;-82
2021/06/16 08:29:03;;;;;;;7.78;4.70;;;;;;;25.51;50.14;97413.52;1837116;77;28192;-79
2021/06/16 08:31:30;;;;;;;6.92;5.20;;;;;;;25.88;49.46;97413.88;1846021;77;25258;-78
2021/06/16 08:33:57;;;;;;;8.18;4.75;;;;;;;26.15;48.77;97411.06;1846062;76;26342;-79
2021/06/16 08:36:23;;;;;;;6.95;4.75;;;;;;;26.37;48.41;97402.81;1846087;77;26359;-79
2021/06/16 08:38:50;;;;;;;7.60;4.92;;;;;;;26.62;47.42;97413.84;1874660;76;26408;-79
2021/06/16 08:41:18;;;;;;;6.42;4.53;;;;;;;26.92;47.60;97414.21;1846186;77;28153;-79
2021/06/16 08:43:47;;;;;;;6.10;4.80;;;;;;;27.34;47.18;97412.25;1819153;76;25701;-79
2021/06/16 08:46:16;;;;;;;6.12;4.75;;;;;;;27.74;45.81;97413.66;1870924;76;25828;-79
2021/06/16 08:48:45;;;;;;;10.85;4.67;;;;;;;28.03;45.16;97416.64;1831177;76;25734;-80
2021/06/16 08:51:15;;;;;;;5.53;4.35;;;;;;;28.32;44.83;97417.45;1855103;77;25729;-82
2021/06/16 08:53:44;;;;;;;6.17;4.40;;;;;;;28.64;43.48;97423.06;1831309;76;27306;-79
2021/06/16 08:56:12;;;;;;;7.42;4.37;;;;;;;28.98;43.75;97424.43;1854818;77;25791;-78
2021/06/16 08:58:41;;;;;;;6.62;4.20;;;;;;;29.39;43.50;97423.05;1854940;76;25895;-77
2021/06/16 09:01:11;;;;;;;8.15;4.60;;;;;;;29.70;42.26;97420.80;1854944;76;26479;-78
2021/06/16 09:03:39;;;;;;;7.60;4.42;;;;;;;29.85;41.90;97415.79;1855078;77;25684;-78
2021/06/16 09:06:10;;;;;;;7.87;4.78;;;;;;;29.79;41.76;97417.14;1854954;76;26616;-78
2021/06/16 09:09:02;;;;;;;6.60;4.33;;;;;;;30.02;41.04;97422.11;1854421;76;25742;-78
2021/06/16 09:11:42;;;;;;;5.67;4.53;;;;;;;30.15;40.44;97416.05;1830813;77;25683;-79
2021/06/16 09:14:16;;;;;;;7.95;4.80;;;;;;;30.29;40.58;97413.01;1844030;76;26568;-80
2021/06/16 09:16:43;;;;;;;7.55;4.75;;;;;;;30.62;40.32;97422.27;1854993;77;25769;-80
2021/06/16 09:19:33;;;;;;;7.78;4.60;;;;;;;30.75;38.99;97409.20;1854915;77;27362;-78
2021/06/16 09:22:08;;;;;;;7.50;4.67;;;;;;;30.65;38.71;97415.20;1853025;77;26284;-77
2021/06/16 09:24:47;;;;;;;6.50;4.33;;;;;;;30.81;38.82;97418.96;1854576;76;26084;-80
2021/06/16 09:27:42;;;;;;;6.72;3.87;;;;;;;31.08;38.66;97415.58;1854534;76;25690;-78
2021/06/16 09:30:26;;;;;;;5.95;3.83;;;;;;;31.27;38.01;97418.45;1877370;75;25674;-81
2021/06/16 09:32:58;;;;;;;5.58;4.08;;;;;;;31.47;37.19;97424.52;1849906;77;27344;-79
2021/06/16 09:35:30;;;;;;;;;;;;;;;31.44;36.46;97416.84;1864579;75;25719;-78
2021/06/16 09:38:00;;;;;;;6.62;4.50;;;;;;;31.53;35.33;97417.54;1871813;75;25858;-78
2021/06/16 09:40:32;;;;;;;7.03;4.37;;;;;;;31.51;35.81;97415.70;1854631;76;26306;-84
2021/06/16 09:43:07;;;;;;;8.75;4.65;;;;;;;31.54;35.66;97417.77;1850512;77;25775;-78
2021/06/16 09:45:37;;;;;;;7.42;4.03;;;;;;;31.66;35.91;97419.79;1854169;76;28289;-79
2021/06/16 09:48:35;;;;;;;5.22;4.33;;;;;;;31.72;35.47;97416.44;1832190;76;25737;-81
2021/06/16 09:51:27;;;;;;;6.30;4.20;;;;;;;31.70;34.83;97415.97;1764367;79;25643;-78
2021/06/16 09:54:11;;;;;;;6.95;3.90;;;;;;;31.72;34.59;97412.25;1845375;76;25750;-82
2021/06/16 09:56:32;;;;;;;8.53;4.28;;;;;;;31.49;34.28;97419.41;1809646;76;26298;-82
2021/06/16 09:58:59;;;;;;;6.47;4.10;;;;;;;31.49;34.95;97418.02;1834979;76;27360;-78
2021/06/16 10:01:54;;;;;;;8.20;4.15;;;;;;;31.65;34.79;97412.00;1823410;76;25768;-78
2021/06/16 10:04:45;;;;;;;4.53;4.05;;;;;;;31.65;34.16;97411.19;1777813;79;25676;-80
2021/06/16 10:07:15;;;;;;;5.83;4.47;;;;;;;31.66;34.73;97414.20;1838245;76;25687;-86
2021/06/16 10:09:57;;;;;;;9.30;4.47;;;;;;;31.58;34.48;97412.33;1805786;76;43892;-85
2021/06/16 10:12:37;;;;;;;11.18;4.60;;;;;;;31.57;33.95;97412.91;1843138;76;27476;-81
2021/06/16 10:15:16;;;;;;;5.33;4.22;;;;;;;31.49;34.38;97405.47;1824836;76;25686;-85
2021/06/16 10:17:45;;;;;;;4.95;4.08;;;;;;;31.57;34.67;97405.11;1839004;76;25695;-80
2021/06/16 10:20:15;;;;;;;7.55;4.45;;;;;;;31.47;35.09;97409.18;1864273;76;25787;-80
2021/06/16 10:22:42;;;;;;;5.00;3.77;;;;;;;31.57;34.55;97398.95;1842964;76;25671;-83
2021/06/16 10:25:10;;;;;;;7.25;4.17;;;;;;;31.62;34.36;97404.31;1846825;75;27352;-81
2021/06/16 10:28:00;;;;;;;5.08;3.77;;;;;;;31.62;34.25;97402.11;1874659;76;25692;-91
2021/06/16 10:30:31;;;;;;;7.70;3.70;;;;;;;31.65;34.27;97400.84;1844467;76;25578;-83
2021/06/16 10:32:59;;;;;;;5.28;3.98;;;;;;;31.70;33.92;97399.80;1846146;77;25791;-77
2021/06/16 10:35:40;;;;;;;4.95;3.47;;;;;;;31.58;33.86;97404.77;1845973;76;25629;-81
2021/06/16 10:38:17;;;;;;;6.72;3.90;;;;;;;31.62;33.99;97407.11;1867668;76;27608;-78
2021/06/16 10:40:51;;;;;;;4.97;3.50;;;;;;;31.59;33.74;97395.82;1846604;76;25665;-79
2021/06/16 10:43:23;;;;;;;4.37;3.08;;;;;;;31.64;33.79;97395.02;1846072;76;25621;-80
2021/06/16 10:45:57;;;;;;;4.00;3.05;;;;;;;31.67;33.56;97394.91;1845885;76;25708;-83
2021/06/16 10:48:53;;;;;;;5.65;3.22;;;;;;;31.48;33.00;97399.08;1832391;77;25349;-80
2021/06/16 10:51:35;;;;;;;7.97;4.05;;;;;;;31.35;32.63;97393.83;1843256;76;26960;-80
2021/06/16 10:54:19;;;;;;;5.60;3.55;;;;;;;31.23;32.30;97396.59;1854798;76;25763;-83
2021/06/16 10:56:54;;;;;;;5.37;3.62;;;;;;;31.16;32.17;97395.75;1835504;77;25765;-85
2021/06/16 10:59:50;;;;;;;6.22;3.75;;;;;;;31.17;32.88;97400.75;1852123;77;25693;-84
2021/06/16 11:02:25;;;;;;;5.53;3.47;;;;;;;31.25;33.17;97392.88;1854684;76;25620;-81
2021/06/16 11:04:52;;;;;;;4.08;3.62;;;;;;;31.21;33.17;97394.73;1850387;76;28473;-78
2021/06/16 11:07:36;;;;;;;5.05;3.58;;;;;;;31.23;33.04;97391.02;1837741;77;25243;-80
2021/06/16 11:10:06;;;;;;;6.35;3.77;;;;;;;31.23;32.69;97395.20;1842201;77;25842;-81
2021/06/16 11:12:46;;;;;;;5.42;3.90;;;;;;;31.13;32.41;97399.25;1854896;77;25672;-82
2021/06/16 11:15:34;;;;;;;4.35;3.10;;;;;;;31.12;32.90;97398.44;1854897;77;25806;-80
2021/06/16 11:18:02;;;;;;;4.85;3.25;;;;;;;31.18;32.59;97398.20;1851447;75;27367;-80
2021/06/16 11:20:41;;;;;;;3.58;3.05;;;;;;;31.11;32.74;97394.59;1808227;77;25736;-82
2021/06/16 11:23:10;;;;;;;5.50;3.42;;;;;;;31.07;32.08;97391.64;1844024;77;26498;-80
2021/06/16 11:25:41;;;;;;;4.72;3.47;;;;;;;31.09;32.04;97396.91;1839536;77;26672;-81
2021/06/16 11:28:23;;;;;;;4.55;3.58;;;;;;;31.14;32.19;97391.94;1855232;77;25781;-80
2021/06/16 11:31:03;;;;;;;4.55;3.60;;;;;;;31.14;32.08;97393.34;1852111;76;27049;-81
2021/06/16 11:33:35;;;;;;;4.67;3.12;;;;;;;31.08;32.15;97393.85;1854725;76;25720;-81
2021/06/16 11:36:27;;;;;;;4.15;3.10;;;;;;;31.10;32.45;97386.81;1854872;77;25720;-80
2021/06/16 11:39:03;;;;;;;4.15;2.95;;;;;;;31.06;32.15;97388.62;1853451;77;25861;-87
2021/06/16 11:41:28;;;;;;;4.05;3.47;;;;;;;30.87;31.59;97391.71;1877276;75;25756;-81
2021/06/16 11:44:03;;;;;;;5.72;3.40;;;;;;;30.87;32.02;97380.56;1858829;75;26896;-82
2021/06/16 11:46:36;;;;;;;5.58;2.85;;;;;;;30.92;32.41;97385.33;1854684;77;25680;-82